createdAt,value
2022-11-02T00:03:59.634Z,8.80
2022-11-02T00:09:04.312Z,8.70
2022-11-02T00:14:07.141Z,8.60
2022-11-02T00:19:10.484Z,8.40
2022-11-02T00:24:14.646Z,8.30
2022-11-02T00:29:17.473Z,8.40
2022-11-02T00:34:21.161Z,8.60
2022-11-02T00:39:25.308Z,8.50
2022-11-02T00:44:28.061Z,8.30
2022-11-02T00:49:30.863Z,8.10
2022-11-02T00:54:35.404Z,7.90
2022-11-02T00:59:38.153Z,8.00
2022-11-02T01:04:40.904Z,8.10
2022-11-02T01:09:44.986Z,8.10
2022-11-02T01:14:47.745Z,8.00
2022-11-02T01:19:51.557Z,8.10
2022-11-02T01:24:55.696Z,8.10
2022-11-02T01:29:58.476Z,8.00
2022-11-02T01:35:02.722Z,8.00
2022-11-02T01:40:07.787Z,8.20
2022-11-02T01:45:14.193Z,8.20
2022-11-02T01:50:21.618Z,8.30
2022-11-02T01:55:29.340Z,8.20
2022-11-02T02:00:32.081Z,8.20
2022-11-02T02:05:37.091Z,8.20
2022-11-02T02:10:41.178Z,8.00
2022-11-02T02:15:55.785Z,8.00
2022-11-02T02:21:13.151Z,8.00
2022-11-02T02:26:48.631Z,7.90
2022-11-02T02:31:59.146Z,7.70
2022-11-02T02:37:06.589Z,7.60
2022-11-02T02:42:16.798Z,7.80
2022-11-02T02:47:24.477Z,7.80
2022-11-02T02:52:29.050Z,7.60
2022-11-02T02:57:34.862Z,7.50
2022-11-02T03:02:40.223Z,7.50
2022-11-02T03:07:49.038Z,7.50
2022-11-02T03:12:58.133Z,7.30
2022-11-02T03:18:07.019Z,7.10
2022-11-02T03:23:19.061Z,7.00
2022-11-02T03:28:31.411Z,7.10
2022-11-02T03:33:38.311Z,7.40
2022-11-02T03:38:46.072Z,7.40
2022-11-02T03:43:50.822Z,7.30
2022-11-02T03:48:56.970Z,7.30
2022-11-02T03:54:06.359Z,7.10
2022-11-02T03:59:09.485Z,7.00
2022-11-02T04:04:13.986Z,7.00
2022-11-02T04:09:17.547Z,7.20
2022-11-02T04:14:38.775Z,7.30
2022-11-02T04:19:45.509Z,7.40
2022-11-02T04:25:09.356Z,7.30
2022-11-02T04:30:13.242Z,7.20
2022-11-02T04:35:17.574Z,7.20
2022-11-02T04:40:20.311Z,7.10
2022-11-02T04:45:23.118Z,6.90
2022-11-02T04:50:27.259Z,6.80
2022-11-02T04:55:30.852Z,7.00
2022-11-02T05:00:33.583Z,6.90
2022-11-02T05:05:37.678Z,6.90
2022-11-02T05:10:40.502Z,6.90
2022-11-02T05:15:43.245Z,6.80
2022-11-02T05:20:52.082Z,6.70
2022-11-02T05:25:55.788Z,6.70
2022-11-02T05:31:00.690Z,6.80
2022-11-02T05:36:05.447Z,6.70
2022-11-02T05:41:08.258Z,6.60
2022-11-02T05:46:11.036Z,6.50
2022-11-02T05:51:15.098Z,6.70
2022-11-02T05:56:23.663Z,6.70
2022-11-02T06:01:27.724Z,6.70
2022-11-02T06:06:32.361Z,6.70
2022-11-02T06:11:35.237Z,6.70
2022-11-02T06:16:37.980Z,6.60
2022-11-02T06:21:44.495Z,6.50
2022-11-02T06:26:50.192Z,6.60
2022-11-02T06:31:53.889Z,6.90
2022-11-02T06:36:57.962Z,7.10
2022-11-02T06:42:00.718Z,7.20
2022-11-02T06:47:03.513Z,7.50
2022-11-02T06:52:07.706Z,7.80
2022-11-02T06:57:10.454Z,8.10
2022-11-02T07:02:13.537Z,8.30
2022-11-02T07:07:17.659Z,8.50
2022-11-02T07:12:23.151Z,8.60
2022-11-02T07:17:31.877Z,8.70
2022-11-02T07:22:36.325Z,8.80
2022-11-02T07:27:40.053Z,8.90
2022-11-02T07:32:43.365Z,9.80
2022-11-02T07:37:56.104Z,10.90
2022-11-02T07:42:59.307Z,13.90
2022-11-02T07:48:02.106Z,16.30
2022-11-02T07:53:06.524Z,17.70
2022-11-02T07:58:13.557Z,18.80
2022-11-02T08:03:16.483Z,20.30
2022-11-02T08:08:22.291Z,21.10
2022-11-02T08:13:26.900Z,22.20
2022-11-02T08:18:30.784Z,22.70
2022-11-02T08:23:34.892Z,25.50
2022-11-02T08:28:40.112Z,25.70
2022-11-02T08:33:43.241Z,27.70
2022-11-02T08:38:47.274Z,28.80
2022-11-02T08:43:50.020Z,30.70
2022-11-02T08:48:52.839Z,31.80
2022-11-02T08:53:57.061Z,33.20
2022-11-02T08:58:59.897Z,35.10
2022-11-02T09:04:02.659Z,36.00
2022-11-02T09:09:06.834Z,34.70
2022-11-02T09:14:09.721Z,31.70
2022-11-02T09:19:27.848Z,29.30
2022-11-02T09:25:12.369Z,28.50
2022-11-02T09:30:24.508Z,29.00
2022-11-02T09:35:29.483Z,29.90
2022-11-02T09:41:18.085Z,25.20
2022-11-02T09:46:29.846Z,24.90
2022-11-02T09:51:38.574Z,23.30
2022-11-02T09:56:43.684Z,22.10
2022-11-02T10:02:14.086Z,20.70
2022-11-02T10:07:28.855Z,18.80
2022-11-02T10:12:43.201Z,17.50
2022-11-02T10:17:48.882Z,17.20
2022-11-02T10:22:52.844Z,17.00
2022-11-02T10:28:04.914Z,16.80
2022-11-02T10:33:17.368Z,16.40
2022-11-02T10:38:56.493Z,16.60
2022-11-02T10:45:04.350Z,18.50
2022-11-02T10:50:47.830Z,28.00
2022-11-02T10:56:07.725Z,28.40
2022-11-02T11:01:16.158Z,28.40
2022-11-02T11:06:20.230Z,27.90
2022-11-02T11:11:25.385Z,28.00
2022-11-02T11:16:35.308Z,29.20
2022-11-02T11:21:40.261Z,27.50
2022-11-02T11:26:43.652Z,28.00
2022-11-02T11:31:47.844Z,28.50
2022-11-02T11:36:50.786Z,25.70
2022-11-02T11:41:53.802Z,26.30
2022-11-02T11:47:00.150Z,29.10
2022-11-02T11:52:04.082Z,29.50
2022-11-02T11:57:24.406Z,30.10
2022-11-02T12:02:36.811Z,27.40
2022-11-02T12:08:25.886Z,28.60
2022-11-02T12:13:50.616Z,28.30
2022-11-02T12:19:11.376Z,28.60
2022-11-02T12:24:48.817Z,29.00
2022-11-02T12:30:17.840Z,25.80
2022-11-02T12:35:48.490Z,23.90
2022-11-02T12:40:57.722Z,23.20
2022-11-02T12:46:05.019Z,21.20
2022-11-02T12:51:13.932Z,20.10
2022-11-02T12:56:21.554Z,23.20
2022-11-02T13:01:30.183Z,26.70
2022-11-02T13:06:51.260Z,22.20
2022-11-02T13:12:07.190Z,19.60
2022-11-02T13:29:00.453Z,24.50
2022-11-02T13:41:03.363Z,24.70
2022-11-02T13:46:41.469Z,23.00
2022-11-02T13:52:05.075Z,19.50
2022-11-02T13:57:25.136Z,18.10
2022-11-02T14:02:31.894Z,18.10
2022-11-02T14:07:39.637Z,17.60
2022-11-02T14:12:45.595Z,17.00
2022-11-02T14:18:02.847Z,16.70
2022-11-02T14:23:38.132Z,19.40
2022-11-02T14:28:45.014Z,22.90
2022-11-02T14:34:09.859Z,22.50
2022-11-02T14:39:20.882Z,21.10
2022-11-02T14:45:17.905Z,20.70
2022-11-02T14:50:22.247Z,20.90
2022-11-02T14:55:31.018Z,21.20
2022-11-02T15:00:39.327Z,21.40
2022-11-02T15:05:46.195Z,21.30
2022-11-02T15:10:50.055Z,20.30
2022-11-02T15:16:27.556Z,18.60
2022-11-02T15:21:30.370Z,16.90
2022-11-02T15:26:42.262Z,15.90
2022-11-02T15:31:54.865Z,15.40
2022-11-02T15:37:00.369Z,14.90
2022-11-02T15:42:05.523Z,14.70
2022-11-02T15:47:18.582Z,14.40
2022-11-02T15:52:31.213Z,14.10
2022-11-02T15:57:44.818Z,14.00
2022-11-02T16:02:50.588Z,13.90
2022-11-02T16:08:11.744Z,13.80
2022-11-02T16:13:17.750Z,13.80
2022-11-02T16:18:29.817Z,13.60
2022-11-02T16:23:35.316Z,13.60
2022-11-02T16:28:39.718Z,13.40
2022-11-02T16:33:45.654Z,13.10
2022-11-02T16:38:54.926Z,12.90
2022-11-02T16:44:01.037Z,12.70
2022-11-02T16:49:16.165Z,12.60
2022-11-02T16:54:30.672Z,12.40
2022-11-02T16:59:33.746Z,12.10
2022-11-02T17:04:42.473Z,11.70
2022-11-02T17:09:50.971Z,11.50
2022-11-02T17:14:53.767Z,11.20
2022-11-02T17:20:09.526Z,11.00
2022-11-02T17:25:14.760Z,10.80
2022-11-02T17:30:45.376Z,10.60
2022-11-02T17:35:51.325Z,10.40
2022-11-02T17:40:55.297Z,10.30
2022-11-02T17:45:59.000Z,10.30
2022-11-02T17:51:03.072Z,10.50
2022-11-02T17:56:06.365Z,10.30
2022-11-02T18:01:11.506Z,10.20
2022-11-02T18:06:15.726Z,10.10
2022-11-02T18:11:23.416Z,9.80
2022-11-02T18:16:28.801Z,9.60
2022-11-02T18:21:32.946Z,9.80
2022-11-02T18:26:36.027Z,9.90
2022-11-02T18:31:38.870Z,9.80
2022-11-02T18:36:43.151Z,9.80
2022-11-02T18:41:45.933Z,9.70
2022-11-02T18:46:49.151Z,9.40
2022-11-02T18:51:53.692Z,9.20
2022-11-02T18:56:56.533Z,9.40
2022-11-02T19:01:59.420Z,9.60
2022-11-02T19:07:21.413Z,9.50
2022-11-02T19:12:26.050Z,9.30
2022-11-02T19:17:29.059Z,9.20
2022-11-02T19:22:33.198Z,9.10
2022-11-02T19:27:36.236Z,8.90
2022-11-02T19:32:38.978Z,8.90
2022-11-02T19:37:43.043Z,9.00
2022-11-02T19:42:45.796Z,9.00
2022-11-02T19:47:50.078Z,8.70
2022-11-02T19:52:54.209Z,8.50
2022-11-02T19:57:56.951Z,8.40
2022-11-02T20:02:59.735Z,8.40
2022-11-02T20:08:04.676Z,8.40
2022-11-02T20:13:07.718Z,8.40
2022-11-02T20:18:19.459Z,8.00
2022-11-02T20:23:24.123Z,7.80
2022-11-02T20:28:26.842Z,7.80
2022-11-02T20:33:29.588Z,7.80
2022-11-02T20:38:34.676Z,7.80
2022-11-02T20:43:38.352Z,7.60
2022-11-02T20:48:41.338Z,7.40
2022-11-02T20:53:45.704Z,7.20
2022-11-02T20:58:55.502Z,7.20
2022-11-02T21:03:58.679Z,7.20
2022-11-02T21:09:09.028Z,7.20
2022-11-02T21:14:14.736Z,7.20
2022-11-02T21:19:17.616Z,7.30
2022-11-02T21:24:21.943Z,7.20
2022-11-02T21:29:24.837Z,7.00
2022-11-02T21:34:30.766Z,6.90
2022-11-02T21:40:03.347Z,6.70
2022-11-02T21:45:44.630Z,6.90
2022-11-02T21:51:23.101Z,6.60
2022-11-02T21:56:30.675Z,6.50
2022-11-02T22:01:48.433Z,6.30
2022-11-02T22:06:59.305Z,6.40
2022-11-02T22:12:18.049Z,6.50
2022-11-02T22:17:43.740Z,6.50
2022-11-02T22:22:44.079Z,6.40
2022-11-02T22:27:48.316Z,6.50
2022-11-02T22:32:53.182Z,6.50
2022-11-02T22:38:22.415Z,6.40
2022-11-02T22:43:27.098Z,6.20
2022-11-02T22:48:29.999Z,5.90
2022-11-02T22:53:35.195Z,5.90
2022-11-02T22:58:40.621Z,5.90
2022-11-02T23:03:49.520Z,6.00
2022-11-02T23:08:55.178Z,6.00
2022-11-02T23:14:10.712Z,6.00
2022-11-02T23:19:32.186Z,5.90
2022-11-02T23:24:52.547Z,5.90
2022-11-02T23:30:15.522Z,5.90
2022-11-02T23:35:35.349Z,5.90
2022-11-02T23:40:38.362Z,5.80
2022-11-02T23:45:42.857Z,5.70
2022-11-02T23:51:04.848Z,5.70
2022-11-02T23:56:31.952Z,5.70
